sensor_id;sensor_type;location;lat;lon;timestamp;pressure;altitude;pressure_sealevel;temperature
72287;BMP180;60221;45.696;16.076;2022-12-29T00:00:04;101165.00;;;3.00
72287;BMP180;60221;45.696;16.076;2022-12-29T00:02:38;101168.00;;;2.90
72287;BMP180;60221;45.696;16.076;2022-12-29T00:05:06;101171.00;;;3.00
72287;BMP180;60221;45.696;16.076;2022-12-29T00:07:32;101164.00;;;3.00
72287;BMP180;60221;45.696;16.076;2022-12-29T00:09:58;101166.00;;;3.00
72287;BMP180;60221;45.696;16.076;2022-12-29T00:12:25;101169.00;;;3.00
72287;BMP180;60221;45.696;16.076;2022-12-29T00:14:53;101164.00;;;3.00
72287;BMP180;60221;45.696;16.076;2022-12-29T00:17:36;101160.00;;;3.00
72287;BMP180;60221;45.696;16.076;2022-12-29T00:20:03;101170.00;;;2.90
72287;BMP180;60221;45.696;16.076;2022-12-29T00:22:49;101160.00;;;2.90
72287;BMP180;60221;45.696;16.076;2022-12-29T00:25:35;101164.00;;;2.90
72287;BMP180;60221;45.696;16.076;2022-12-29T00:28:20;101155.00;;;2.80
72287;BMP180;60221;45.696;16.076;2022-12-29T00:30:48;101147.00;;;2.80
72287;BMP180;60221;45.696;16.076;2022-12-29T00:33:33;101146.00;;;2.80
72287;BMP180;60221;45.696;16.076;2022-12-29T00:36:30;101143.00;;;2.80
72287;BMP180;60221;45.696;16.076;2022-12-29T00:39:02;101144.00;;;2.80
72287;BMP180;60221;45.696;16.076;2022-12-29T00:41:49;101137.00;;;2.80
72287;BMP180;60221;45.696;16.076;2022-12-29T00:44:33;101139.00;;;2.80
72287;BMP180;60221;45.696;16.076;2022-12-29T00:46:59;101135.00;;;2.90
72287;BMP180;60221;45.696;16.076;2022-12-29T00:49:27;101138.00;;;2.90
72287;BMP180;60221;45.696;16.076;2022-12-29T00:52:08;101132.00;;;2.90
72287;BMP180;60221;45.696;16.076;2022-12-29T00:54:38;101134.00;;;2.90
72287;BMP180;60221;45.696;16.076;2022-12-29T00:57:08;101125.00;;;2.90
72287;BMP180;60221;45.696;16.076;2022-12-29T00:59:36;101125.00;;;2.90
72287;BMP180;60221;45.696;16.076;2022-12-29T01:02:03;101121.00;;;2.80
72287;BMP180;60221;45.696;16.076;2022-12-29T01:04:30;101131.00;;;2.80
72287;BMP180;60221;45.696;16.076;2022-12-29T01:06:56;101123.00;;;2.80
72287;BMP180;60221;45.696;16.076;2022-12-29T01:09:22;101122.00;;;2.80
72287;BMP180;60221;45.696;16.076;2022-12-29T01:12:08;101113.00;;;2.80
72287;BMP180;60221;45.696;16.076;2022-12-29T01:14:36;101117.00;;;2.80
72287;BMP180;60221;45.696;16.076;2022-12-29T01:17:03;101114.00;;;2.80
72287;BMP180;60221;45.696;16.076;2022-12-29T01:19:31;101118.00;;;2.80
72287;BMP180;60221;45.696;16.076;2022-12-29T01:21:58;101115.00;;;2.80
72287;BMP180;60221;45.696;16.076;2022-12-29T01:24:24;101112.00;;;2.80
72287;BMP180;60221;45.696;16.076;2022-12-29T01:26:52;101124.00;;;2.80
72287;BMP180;60221;45.696;16.076;2022-12-29T01:29:20;101118.00;;;2.80
72287;BMP180;60221;45.696;16.076;2022-12-29T01:31:46;101120.00;;;2.80
72287;BMP180;60221;45.696;16.076;2022-12-29T01:34:12;101120.00;;;2.90
72287;BMP180;60221;45.696;16.076;2022-12-29T01:36:38;101117.00;;;2.90
72287;BMP180;60221;45.696;16.076;2022-12-29T01:39:05;101112.00;;;2.90
72287;BMP180;60221;45.696;16.076;2022-12-29T01:41:31;101115.00;;;2.90
72287;BMP180;60221;45.696;16.076;2022-12-29T01:43:59;101123.00;;;2.90
72287;BMP180;60221;45.696;16.076;2022-12-29T01:46:50;101118.00;;;2.80
72287;BMP180;60221;45.696;16.076;2022-12-29T01:51:57;101119.00;;;2.80
72287;BMP180;60221;45.696;16.076;2022-12-29T01:54:43;101115.00;;;2.80
72287;BMP180;60221;45.696;16.076;2022-12-29T01:57:20;101106.00;;;2.80
72287;BMP180;60221;45.696;16.076;2022-12-29T01:59:51;101119.00;;;2.90
72287;BMP180;60221;45.696;16.076;2022-12-29T02:02:44;101101.00;;;2.90
72287;BMP180;60221;45.696;16.076;2022-12-29T02:05:16;101095.00;;;2.90
72287;BMP180;60221;45.696;16.076;2022-12-29T02:07:44;101100.00;;;2.90
72287;BMP180;60221;45.696;16.076;2022-12-29T02:10:13;101088.00;;;2.90
72287;BMP180;60221;45.696;16.076;2022-12-29T02:12:40;101099.00;;;3.00
72287;BMP180;60221;45.696;16.076;2022-12-29T02:15:08;101094.00;;;3.00
72287;BMP180;60221;45.696;16.076;2022-12-29T02:18:04;101084.00;;;3.00
72287;BMP180;60221;45.696;16.076;2022-12-29T02:20:47;101090.00;;;3.00
72287;BMP180;60221;45.696;16.076;2022-12-29T02:37:32;101071.00;;;3.20
72287;BMP180;60221;45.696;16.076;2022-12-29T02:40:25;101069.00;;;3.20
72287;BMP180;60221;45.696;16.076;2022-12-29T02:43:18;101070.00;;;3.20
72287;BMP180;60221;45.696;16.076;2022-12-29T02:45:58;101068.00;;;3.30
72287;BMP180;60221;45.696;16.076;2022-12-29T02:51:26;101078.00;;;3.30
72287;BMP180;60221;45.696;16.076;2022-12-29T02:53:53;101077.00;;;3.30
72287;BMP180;60221;45.696;16.076;2022-12-29T02:56:39;101082.00;;;3.40
72287;BMP180;60221;45.696;16.076;2022-12-29T02:59:06;101067.00;;;3.40
72287;BMP180;60221;45.696;16.076;2022-12-29T03:02:01;101066.00;;;3.40
72287;BMP180;60221;45.696;16.076;2022-12-29T03:05:47;101062.00;;;3.40
72287;BMP180;60221;45.696;16.076;2022-12-29T03:08:22;101059.00;;;3.40
72287;BMP180;60221;45.696;16.076;2022-12-29T03:10:54;101048.00;;;3.50
72287;BMP180;60221;45.696;16.076;2022-12-29T03:13:52;101048.00;;;3.50
72287;BMP180;60221;45.696;16.076;2022-12-29T03:19:35;101020.00;;;3.50
72287;BMP180;60221;45.696;16.076;2022-12-29T03:22:04;101028.00;;;3.60
72287;BMP180;60221;45.696;16.076;2022-12-29T03:25:08;101033.00;;;3.60
72287;BMP180;60221;45.696;16.076;2022-12-29T03:27:49;101024.00;;;3.60
72287;BMP180;60221;45.696;16.076;2022-12-29T03:30:13;101036.00;;;3.70
72287;BMP180;60221;45.696;16.076;2022-12-29T03:32:52;101020.00;;;3.70
72287;BMP180;60221;45.696;16.076;2022-12-29T03:35:25;100998.00;;;3.70
72287;BMP180;60221;45.696;16.076;2022-12-29T03:38:17;101001.00;;;3.70
72287;BMP180;60221;45.696;16.076;2022-12-29T03:40:55;101011.00;;;3.80
72287;BMP180;60221;45.696;16.076;2022-12-29T03:43:24;101007.00;;;3.80
72287;BMP180;60221;45.696;16.076;2022-12-29T03:45:54;101003.00;;;3.80
72287;BMP180;60221;45.696;16.076;2022-12-29T03:48:20;100997.00;;;3.80
72287;BMP180;60221;45.696;16.076;2022-12-29T03:50:48;100994.00;;;3.80
72287;BMP180;60221;45.696;16.076;2022-12-29T03:53:14;100992.00;;;3.80
72287;BMP180;60221;45.696;16.076;2022-12-29T03:55:41;101019.00;;;3.80
72287;BMP180;60221;45.696;16.076;2022-12-29T03:58:09;101026.00;;;3.80
72287;BMP180;60221;45.696;16.076;2022-12-29T04:00:54;101030.00;;;3.80
72287;BMP180;60221;45.696;16.076;2022-12-29T04:03:21;101024.00;;;3.80
72287;BMP180;60221;45.696;16.076;2022-12-29T04:05:48;101017.00;;;3.90
72287;BMP180;60221;45.696;16.076;2022-12-29T04:08:14;101024.00;;;3.90
72287;BMP180;60221;45.696;16.076;2022-12-29T04:10:42;101025.00;;;3.90
72287;BMP180;60221;45.696;16.076;2022-12-29T04:13:08;101032.00;;;3.90
72287;BMP180;60221;45.696;16.076;2022-12-29T04:15:35;101003.00;;;3.80
72287;BMP180;60221;45.696;16.076;2022-12-29T04:18:02;101036.00;;;3.70
72287;BMP180;60221;45.696;16.076;2022-12-29T04:20:29;101002.00;;;3.70
72287;BMP180;60221;45.696;16.076;2022-12-29T04:23:14;101005.00;;;3.70
72287;BMP180;60221;45.696;16.076;2022-12-29T04:25:44;101007.00;;;3.70
72287;BMP180;60221;45.696;16.076;2022-12-29T04:28:14;101005.00;;;3.60
72287;BMP180;60221;45.696;16.076;2022-12-29T04:30:52;100986.00;;;3.60
72287;BMP180;60221;45.696;16.076;2022-12-29T04:33:21;100976.00;;;3.60
72287;BMP180;60221;45.696;16.076;2022-12-29T04:35:49;100991.00;;;3.50
72287;BMP180;60221;45.696;16.076;2022-12-29T04:38:16;101005.00;;;3.50
72287;BMP180;60221;45.696;16.076;2022-12-29T04:40:43;101014.00;;;3.50
72287;BMP180;60221;45.696;16.076;2022-12-29T04:43:10;101020.00;;;3.50
72287;BMP180;60221;45.696;16.076;2022-12-29T04:45:56;101019.00;;;3.60
72287;BMP180;60221;45.696;16.076;2022-12-29T04:48:26;101004.00;;;3.60
72287;BMP180;60221;45.696;16.076;2022-12-29T04:51:07;100990.00;;;3.60
72287;BMP180;60221;45.696;16.076;2022-12-29T04:53:35;100992.00;;;3.60
72287;BMP180;60221;45.696;16.076;2022-12-29T04:56:02;100977.00;;;3.60
72287;BMP180;60221;45.696;16.076;2022-12-29T04:58:28;100974.00;;;3.60
72287;BMP180;60221;45.696;16.076;2022-12-29T05:00:55;100977.00;;;3.60
72287;BMP180;60221;45.696;16.076;2022-12-29T05:03:23;100985.00;;;3.60
72287;BMP180;60221;45.696;16.076;2022-12-29T05:05:54;100974.00;;;3.50
72287;BMP180;60221;45.696;16.076;2022-12-29T05:08:22;100978.00;;;3.40
72287;BMP180;60221;45.696;16.076;2022-12-29T05:10:53;100989.00;;;3.40
72287;BMP180;60221;45.696;16.076;2022-12-29T05:13:19;100985.00;;;3.40
72287;BMP180;60221;45.696;16.076;2022-12-29T05:15:52;100993.00;;;3.40
72287;BMP180;60221;45.696;16.076;2022-12-29T05:18:19;100986.00;;;3.40
72287;BMP180;60221;45.696;16.076;2022-12-29T05:20:46;100984.00;;;3.40
72287;BMP180;60221;45.696;16.076;2022-12-29T05:23:13;100983.00;;;3.40
72287;BMP180;60221;45.696;16.076;2022-12-29T05:25:43;100990.00;;;3.30
72287;BMP180;60221;45.696;16.076;2022-12-29T05:28:19;100996.00;;;3.30
72287;BMP180;60221;45.696;16.076;2022-12-29T05:30:51;101000.00;;;3.20
72287;BMP180;60221;45.696;16.076;2022-12-29T05:33:19;101020.00;;;3.20
72287;BMP180;60221;45.696;16.076;2022-12-29T05:35:47;101013.00;;;3.20
72287;BMP180;60221;45.696;16.076;2022-12-29T05:38:14;101012.00;;;3.30
72287;BMP180;60221;45.696;16.076;2022-12-29T05:40:42;101021.00;;;3.30
72287;BMP180;60221;45.696;16.076;2022-12-29T05:43:17;101018.00;;;3.40
72287;BMP180;60221;45.696;16.076;2022-12-29T05:45:50;101013.00;;;3.40
72287;BMP180;60221;45.696;16.076;2022-12-29T05:48:24;101003.00;;;3.40
72287;BMP180;60221;45.696;16.076;2022-12-29T05:50:56;100999.00;;;3.40
72287;BMP180;60221;45.696;16.076;2022-12-29T05:53:24;101011.00;;;3.40
72287;BMP180;60221;45.696;16.076;2022-12-29T05:55:50;101001.00;;;3.40
72287;BMP180;60221;45.696;16.076;2022-12-29T05:58:17;101004.00;;;3.30
72287;BMP180;60221;45.696;16.076;2022-12-29T06:00:43;101000.00;;;3.30
72287;BMP180;60221;45.696;16.076;2022-12-29T06:03:12;101027.00;;;3.30
72287;BMP180;60221;45.696;16.076;2022-12-29T06:05:38;101023.00;;;3.30
72287;BMP180;60221;45.696;16.076;2022-12-29T06:08:05;101028.00;;;3.30
72287;BMP180;60221;45.696;16.076;2022-12-29T06:10:31;101030.00;;;3.30
72287;BMP180;60221;45.696;16.076;2022-12-29T06:13:00;101033.00;;;3.30
72287;BMP180;60221;45.696;16.076;2022-12-29T06:15:26;101030.00;;;3.20
72287;BMP180;60221;45.696;16.076;2022-12-29T06:17:54;101026.00;;;3.20
72287;BMP180;60221;45.696;16.076;2022-12-29T06:20:21;101024.00;;;3.20
72287;BMP180;60221;45.696;16.076;2022-12-29T06:22:48;101030.00;;;3.10
72287;BMP180;60221;45.696;16.076;2022-12-29T06:25:15;101038.00;;;3.10
72287;BMP180;60221;45.696;16.076;2022-12-29T06:27:43;101031.00;;;3.10
72287;BMP180;60221;45.696;16.076;2022-12-29T06:30:11;101026.00;;;3.10
72287;BMP180;60221;45.696;16.076;2022-12-29T06:32:39;101039.00;;;3.10
72287;BMP180;60221;45.696;16.076;2022-12-29T06:35:09;101027.00;;;3.10
72287;BMP180;60221;45.696;16.076;2022-12-29T06:37:37;101034.00;;;3.10
72287;BMP180;60221;45.696;16.076;2022-12-29T06:40:05;101033.00;;;3.10
72287;BMP180;60221;45.696;16.076;2022-12-29T06:42:35;101028.00;;;3.10
72287;BMP180;60221;45.696;16.076;2022-12-29T06:45:12;101033.00;;;3.10
72287;BMP180;60221;45.696;16.076;2022-12-29T06:47:38;101042.00;;;3.10
72287;BMP180;60221;45.696;16.076;2022-12-29T06:50:06;101041.00;;;3.20
72287;BMP180;60221;45.696;16.076;2022-12-29T06:52:33;101046.00;;;3.20
72287;BMP180;60221;45.696;16.076;2022-12-29T06:54:59;101050.00;;;3.20
72287;BMP180;60221;45.696;16.076;2022-12-29T06:57:25;101063.00;;;3.30
72287;BMP180;60221;45.696;16.076;2022-12-29T06:59:52;101065.00;;;3.30
72287;BMP180;60221;45.696;16.076;2022-12-29T07:02:20;101049.00;;;3.20
72287;BMP180;60221;45.696;16.076;2022-12-29T07:04:47;101066.00;;;3.20
72287;BMP180;60221;45.696;16.076;2022-12-29T07:07:13;101073.00;;;3.30
72287;BMP180;60221;45.696;16.076;2022-12-29T07:09:40;101077.00;;;3.30
72287;BMP180;60221;45.696;16.076;2022-12-29T07:12:06;101071.00;;;3.30
72287;BMP180;60221;45.696;16.076;2022-12-29T07:14:33;101068.00;;;3.30
72287;BMP180;60221;45.696;16.076;2022-12-29T07:16:59;101058.00;;;3.40
72287;BMP180;60221;45.696;16.076;2022-12-29T07:19:25;101061.00;;;3.40
72287;BMP180;60221;45.696;16.076;2022-12-29T07:21:54;101055.00;;;3.40
72287;BMP180;60221;45.696;16.076;2022-12-29T07:24:21;101044.00;;;3.50
72287;BMP180;60221;45.696;16.076;2022-12-29T07:26:47;101047.00;;;3.60
72287;BMP180;60221;45.696;16.076;2022-12-29T07:29:13;101049.00;;;3.60
72287;BMP180;60221;45.696;16.076;2022-12-29T07:31:40;101061.00;;;3.70
72287;BMP180;60221;45.696;16.076;2022-12-29T07:34:08;101062.00;;;3.70
72287;BMP180;60221;45.696;16.076;2022-12-29T07:36:35;101055.00;;;3.80
72287;BMP180;60221;45.696;16.076;2022-12-29T07:39:02;101056.00;;;3.90
72287;BMP180;60221;45.696;16.076;2022-12-29T07:41:29;101061.00;;;4.00
72287;BMP180;60221;45.696;16.076;2022-12-29T07:43:56;101065.00;;;4.10
72287;BMP180;60221;45.696;16.076;2022-12-29T07:46:24;101068.00;;;4.20
72287;BMP180;60221;45.696;16.076;2022-12-29T07:48:50;101071.00;;;4.20
72287;BMP180;60221;45.696;16.076;2022-12-29T07:51:17;101064.00;;;4.30
72287;BMP180;60221;45.696;16.076;2022-12-29T07:53:43;101066.00;;;4.40
72287;BMP180;60221;45.696;16.076;2022-12-29T07:56:10;101059.00;;;4.50
72287;BMP180;60221;45.696;16.076;2022-12-29T07:58:36;101056.00;;;4.50
72287;BMP180;60221;45.696;16.076;2022-12-29T08:01:02;101050.00;;;4.60
72287;BMP180;60221;45.696;16.076;2022-12-29T08:03:29;101039.00;;;4.70
72287;BMP180;60221;45.696;16.076;2022-12-29T08:05:56;101046.00;;;4.80
72287;BMP180;60221;45.696;16.076;2022-12-29T08:08:23;101047.00;;;4.80
72287;BMP180;60221;45.696;16.076;2022-12-29T08:10:49;101046.00;;;4.80
72287;BMP180;60221;45.696;16.076;2022-12-29T08:13:16;101058.00;;;4.90
72287;BMP180;60221;45.696;16.076;2022-12-29T08:15:42;101060.00;;;5.00
72287;BMP180;60221;45.696;16.076;2022-12-29T08:18:08;101056.00;;;5.00
72287;BMP180;60221;45.696;16.076;2022-12-29T08:20:35;101062.00;;;5.10
72287;BMP180;60221;45.696;16.076;2022-12-29T08:23:01;101065.00;;;5.20
72287;BMP180;60221;45.696;16.076;2022-12-29T08:25:28;101053.00;;;5.30
72287;BMP180;60221;45.696;16.076;2022-12-29T08:27:55;101050.00;;;5.40
72287;BMP180;60221;45.696;16.076;2022-12-29T08:30:21;101042.00;;;5.40
72287;BMP180;60221;45.696;16.076;2022-12-29T08:32:49;101042.00;;;5.50
72287;BMP180;60221;45.696;16.076;2022-12-29T08:35:16;101031.00;;;5.50
72287;BMP180;60221;45.696;16.076;2022-12-29T08:37:42;101028.00;;;5.60
72287;BMP180;60221;45.696;16.076;2022-12-29T08:40:10;101033.00;;;5.60
72287;BMP180;60221;45.696;16.076;2022-12-29T08:42:36;101027.00;;;5.70
72287;BMP180;60221;45.696;16.076;2022-12-29T08:45:03;101039.00;;;5.80
72287;BMP180;60221;45.696;16.076;2022-12-29T08:47:30;101033.00;;;5.80
72287;BMP180;60221;45.696;16.076;2022-12-29T08:49:57;101046.00;;;5.90
72287;BMP180;60221;45.696;16.076;2022-12-29T08:52:23;101061.00;;;5.90
72287;BMP180;60221;45.696;16.076;2022-12-29T08:54:49;101051.00;;;6.00
72287;BMP180;60221;45.696;16.076;2022-12-29T08:57:16;101060.00;;;6.00
72287;BMP180;60221;45.696;16.076;2022-12-29T08:59:45;101070.00;;;6.10
72287;BMP180;60221;45.696;16.076;2022-12-29T09:02:13;101065.00;;;6.10
72287;BMP180;60221;45.696;16.076;2022-12-29T09:04:39;101059.00;;;6.20
72287;BMP180;60221;45.696;16.076;2022-12-29T09:07:05;101052.00;;;6.30
72287;BMP180;60221;45.696;16.076;2022-12-29T09:09:33;101054.00;;;6.30
72287;BMP180;60221;45.696;16.076;2022-12-29T09:12:00;101045.00;;;6.40
72287;BMP180;60221;45.696;16.076;2022-12-29T09:14:26;101036.00;;;6.40
72287;BMP180;60221;45.696;16.076;2022-12-29T09:16:53;101043.00;;;6.40
72287;BMP180;60221;45.696;16.076;2022-12-29T09:19:38;101048.00;;;6.50
72287;BMP180;60221;45.696;16.076;2022-12-29T09:22:05;101046.00;;;6.60
72287;BMP180;60221;45.696;16.076;2022-12-29T09:24:31;101025.00;;;6.70
72287;BMP180;60221;45.696;16.076;2022-12-29T09:26:57;101023.00;;;6.90
72287;BMP180;60221;45.696;16.076;2022-12-29T09:29:24;101021.00;;;7.00
72287;BMP180;60221;45.696;16.076;2022-12-29T09:31:50;101022.00;;;7.10
72287;BMP180;60221;45.696;16.076;2022-12-29T09:34:17;101015.00;;;7.30
72287;BMP180;60221;45.696;16.076;2022-12-29T09:36:43;101011.00;;;7.30
72287;BMP180;60221;45.696;16.076;2022-12-29T09:39:10;101008.00;;;7.40
72287;BMP180;60221;45.696;16.076;2022-12-29T09:41:43;101019.00;;;7.50
72287;BMP180;60221;45.696;16.076;2022-12-29T09:44:36;101009.00;;;7.60
72287;BMP180;60221;45.696;16.076;2022-12-29T09:47:14;101011.00;;;7.70
72287;BMP180;60221;45.696;16.076;2022-12-29T09:49:48;101019.00;;;7.70
72287;BMP180;60221;45.696;16.076;2022-12-29T09:52:26;101010.00;;;7.80
72287;BMP180;60221;45.696;16.076;2022-12-29T10:00:36;101001.00;;;8.10
72287;BMP180;60221;45.696;16.076;2022-12-29T10:03:15;101000.00;;;8.20
72287;BMP180;60221;45.696;16.076;2022-12-29T10:06:10;100996.00;;;8.20
72287;BMP180;60221;45.696;16.076;2022-12-29T10:11:35;100985.00;;;8.40
72287;BMP180;60221;45.696;16.076;2022-12-29T10:17:34;100959.00;;;8.60
72287;BMP180;60221;45.696;16.076;2022-12-29T10:20:16;100966.00;;;8.70
72287;BMP180;60221;45.696;16.076;2022-12-29T10:25:41;100969.00;;;8.80
72287;BMP180;60221;45.696;16.076;2022-12-29T10:28:24;100961.00;;;8.90
72287;BMP180;60221;45.696;16.076;2022-12-29T10:30:53;100956.00;;;9.00
72287;BMP180;60221;45.696;16.076;2022-12-29T10:33:33;100962.00;;;9.20
72287;BMP180;60221;45.696;16.076;2022-12-29T10:35:55;100963.00;;;9.40
72287;BMP180;60221;45.696;16.076;2022-12-29T10:38:28;100963.00;;;9.50
72287;BMP180;60221;45.696;16.076;2022-12-29T10:41:25;100960.00;;;9.80
72287;BMP180;60221;45.696;16.076;2022-12-29T10:43:56;100958.00;;;9.90
72287;BMP180;60221;45.696;16.076;2022-12-29T10:46:28;100946.00;;;10.00
72287;BMP180;60221;45.696;16.076;2022-12-29T10:48:56;100943.00;;;10.10
72287;BMP180;60221;45.696;16.076;2022-12-29T10:51:26;100944.00;;;10.20
72287;BMP180;60221;45.696;16.076;2022-12-29T10:57:03;100950.00;;;10.40
72287;BMP180;60221;45.696;16.076;2022-12-29T10:59:36;100959.00;;;10.50
72287;BMP180;60221;45.696;16.076;2022-12-29T11:07:25;100943.00;;;10.90
72287;BMP180;60221;45.696;16.076;2022-12-29T11:09:52;100948.00;;;11.00
72287;BMP180;60221;45.696;16.076;2022-12-29T11:12:27;100950.00;;;11.10
72287;BMP180;60221;45.696;16.076;2022-12-29T11:15:13;100951.00;;;11.10
72287;BMP180;60221;45.696;16.076;2022-12-29T11:17:53;100953.00;;;11.20
72287;BMP180;60221;45.696;16.076;2022-12-29T11:23:05;100967.00;;;11.20
72287;BMP180;60221;45.696;16.076;2022-12-29T11:29:03;100945.00;;;11.30
72287;BMP180;60221;45.696;16.076;2022-12-29T11:31:17;100944.00;;;11.40
72287;BMP180;60221;45.696;16.076;2022-12-29T11:33:46;100927.00;;;11.40
72287;BMP180;60221;45.696;16.076;2022-12-29T11:36:19;100919.00;;;11.50
72287;BMP180;60221;45.696;16.076;2022-12-29T11:38:55;100918.00;;;11.60
72287;BMP180;60221;45.696;16.076;2022-12-29T11:41:31;100915.00;;;11.60
72287;BMP180;60221;45.696;16.076;2022-12-29T11:44:03;100919.00;;;11.60
72287;BMP180;60221;45.696;16.076;2022-12-29T11:46:34;100923.00;;;11.70
72287;BMP180;60221;45.696;16.076;2022-12-29T11:49:04;100929.00;;;11.70
72287;BMP180;60221;45.696;16.076;2022-12-29T11:51:39;100914.00;;;11.70
72287;BMP180;60221;45.696;16.076;2022-12-29T11:54:21;100917.00;;;11.80
72287;BMP180;60221;45.696;16.076;2022-12-29T11:56:49;100914.00;;;11.80
72287;BMP180;60221;45.696;16.076;2022-12-29T12:02:20;100917.00;;;11.90
72287;BMP180;60221;45.696;16.076;2022-12-29T12:05:10;100920.00;;;12.00
72287;BMP180;60221;45.696;16.076;2022-12-29T12:07:56;100906.00;;;12.10
72287;BMP180;60221;45.696;16.076;2022-12-29T12:10:30;100904.00;;;12.10
72287;BMP180;60221;45.696;16.076;2022-12-29T12:15:47;100903.00;;;12.30
72287;BMP180;60221;45.696;16.076;2022-12-29T12:27:15;100889.00;;;12.70
72287;BMP180;60221;45.696;16.076;2022-12-29T12:32:48;100884.00;;;12.90
72287;BMP180;60221;45.696;16.076;2022-12-29T12:35:26;100881.00;;;12.90
72287;BMP180;60221;45.696;16.076;2022-12-29T12:40:59;100887.00;;;12.90
72287;BMP180;60221;45.696;16.076;2022-12-29T12:43:48;100889.00;;;12.90
72287;BMP180;60221;45.696;16.076;2022-12-29T12:52:51;100878.00;;;12.80
72287;BMP180;60221;45.696;16.076;2022-12-29T13:03:55;100882.00;;;12.90
72287;BMP180;60221;45.696;16.076;2022-12-29T13:12:44;100889.00;;;12.90
72287;BMP180;60221;45.696;16.076;2022-12-29T13:30:03;100892.00;;;12.70
72287;BMP180;60221;45.696;16.076;2022-12-29T13:38:25;100882.00;;;12.60
72287;BMP180;60221;45.696;16.076;2022-12-29T13:40:56;100876.00;;;12.60
72287;BMP180;60221;45.696;16.076;2022-12-29T13:43:30;100881.00;;;12.60
72287;BMP180;60221;45.696;16.076;2022-12-29T13:46:12;100893.00;;;12.60
72287;BMP180;60221;45.696;16.076;2022-12-29T13:48:51;100889.00;;;12.50
72287;BMP180;60221;45.696;16.076;2022-12-29T13:51:28;100889.00;;;12.50
72287;BMP180;60221;45.696;16.076;2022-12-29T13:56:56;100899.00;;;12.50
72287;BMP180;60221;45.696;16.076;2022-12-29T14:02:31;100895.00;;;12.40
72287;BMP180;60221;45.696;16.076;2022-12-29T14:05:05;100892.00;;;12.40
72287;BMP180;60221;45.696;16.076;2022-12-29T14:07:37;100895.00;;;12.40
72287;BMP180;60221;45.696;16.076;2022-12-29T14:10:17;100898.00;;;12.40
72287;BMP180;60221;45.696;16.076;2022-12-29T14:12:42;100882.00;;;12.40
72287;BMP180;60221;45.696;16.076;2022-12-29T14:17:43;100889.00;;;12.50
72287;BMP180;60221;45.696;16.076;2022-12-29T14:20:20;100891.00;;;12.50
72287;BMP180;60221;45.696;16.076;2022-12-29T14:23:15;100888.00;;;12.50
72287;BMP180;60221;45.696;16.076;2022-12-29T14:28:37;100897.00;;;12.40
72287;BMP180;60221;45.696;16.076;2022-12-29T14:39:44;100891.00;;;12.10
72287;BMP180;60221;45.696;16.076;2022-12-29T14:42:19;100892.00;;;12.10
72287;BMP180;60221;45.696;16.076;2022-12-29T14:45:22;100885.00;;;12.00
72287;BMP180;60221;45.696;16.076;2022-12-29T14:47:51;100882.00;;;11.90
72287;BMP180;60221;45.696;16.076;2022-12-29T14:50:21;100882.00;;;11.80
72287;BMP180;60221;45.696;16.076;2022-12-29T14:52:54;100880.00;;;11.80
72287;BMP180;60221;45.696;16.076;2022-12-29T14:55:47;100874.00;;;11.70
72287;BMP180;60221;45.696;16.076;2022-12-29T14:58:37;100879.00;;;11.60
72287;BMP180;60221;45.696;16.076;2022-12-29T15:04:22;100895.00;;;11.50
72287;BMP180;60221;45.696;16.076;2022-12-29T15:06:50;100891.00;;;11.50
72287;BMP180;60221;45.696;16.076;2022-12-29T15:09:24;100892.00;;;11.40
72287;BMP180;60221;45.696;16.076;2022-12-29T15:12:06;100894.00;;;11.40
72287;BMP180;60221;45.696;16.076;2022-12-29T15:14:55;100886.00;;;11.30
72287;BMP180;60221;45.696;16.076;2022-12-29T15:20:01;100887.00;;;11.20
72287;BMP180;60221;45.696;16.076;2022-12-29T15:22:48;100874.00;;;11.10
72287;BMP180;60221;45.696;16.076;2022-12-29T15:25:17;100872.00;;;11.10
72287;BMP180;60221;45.696;16.076;2022-12-29T15:27:52;100879.00;;;11.10
72287;BMP180;60221;45.696;16.076;2022-12-29T15:30:22;100888.00;;;11.00
72287;BMP180;60221;45.696;16.076;2022-12-29T15:32:49;100895.00;;;10.90
72287;BMP180;60221;45.696;16.076;2022-12-29T15:35:33;100889.00;;;10.90
72287;BMP180;60221;45.696;16.076;2022-12-29T15:38:13;100891.00;;;10.90
72287;BMP180;60221;45.696;16.076;2022-12-29T15:40:45;100893.00;;;10.80
72287;BMP180;60221;45.696;16.076;2022-12-29T15:46:03;100897.00;;;10.80
72287;BMP180;60221;45.696;16.076;2022-12-29T15:48:31;100901.00;;;10.70
72287;BMP180;60221;45.696;16.076;2022-12-29T15:50:58;100898.00;;;10.70
72287;BMP180;60221;45.696;16.076;2022-12-29T15:53:29;100904.00;;;10.60
72287;BMP180;60221;45.696;16.076;2022-12-29T15:56:06;100906.00;;;10.60
72287;BMP180;60221;45.696;16.076;2022-12-29T15:58:45;100904.00;;;10.60
72287;BMP180;60221;45.696;16.076;2022-12-29T16:04:01;100895.00;;;10.50
72287;BMP180;60221;45.696;16.076;2022-12-29T16:06:38;100893.00;;;10.50
72287;BMP180;60221;45.696;16.076;2022-12-29T16:09:15;100900.00;;;10.50
72287;BMP180;60221;45.696;16.076;2022-12-29T16:11:49;100895.00;;;10.40
72287;BMP180;60221;45.696;16.076;2022-12-29T16:14:43;100898.00;;;10.40
72287;BMP180;60221;45.696;16.076;2022-12-29T16:17:12;100906.00;;;10.40
72287;BMP180;60221;45.696;16.076;2022-12-29T16:19:56;100903.00;;;10.40
72287;BMP180;60221;45.696;16.076;2022-12-29T16:22:41;100898.00;;;10.40
72287;BMP180;60221;45.696;16.076;2022-12-29T16:28:02;100915.00;;;10.30
72287;BMP180;60221;45.696;16.076;2022-12-29T16:30:33;100913.00;;;10.30
72287;BMP180;60221;45.696;16.076;2022-12-29T16:33:03;100915.00;;;10.30
72287;BMP180;60221;45.696;16.076;2022-12-29T16:35:46;100906.00;;;10.30
72287;BMP180;60221;45.696;16.076;2022-12-29T16:38:15;100905.00;;;10.30
72287;BMP180;60221;45.696;16.076;2022-12-29T16:40:57;100911.00;;;10.30
72287;BMP180;60221;45.696;16.076;2022-12-29T16:48:54;100907.00;;;10.30
72287;BMP180;60221;45.696;16.076;2022-12-29T16:51:30;100903.00;;;10.20
72287;BMP180;60221;45.696;16.076;2022-12-29T16:54:00;100896.00;;;10.20
72287;BMP180;60221;45.696;16.076;2022-12-29T16:56:33;100890.00;;;10.20